National Weather Service Raw Text Product

Displaying AFOS PIL: TAFDSM Received: 2018-01-12 05:29 UTC


322 
FTUS43 KDMX 120529
TAFDSM
TAF
KDSM 120529Z 1206/1306 33013G22KT 6SM BLSN SCT015
     FM120900 34011KT P6SM SKC
     FM130100 36010KT P6SM BKN080=